Clipper Mills, California
Current Conditions -  °F | °C
As of 4:20 PM on Friday 21 Nov 2014 (Local Time) from KGOO Reporting Station
Overcast Overcast  
Wind Chill: 48°   Ceiling: 4700
Heat Index: 48°   Visibility: 10mi
Dew Point: 45°   Wind: 0mph
Humidity: 87%   Direction: NA
Pressure: 30.1"   Gusts: NA
Location:  39.53°N, 121.16°W
Report Text: KGOO 220020Z AUTO 00000KT 10SM FEW033 OVC047 09/07 A3010 RMK AO1
Loading
Personal Weather Stations






























Interactive Weather Map New forecast layout! Learn more

10-Day Weather Forecast

Advertisements
Track Severe Weather on mobile